Republic, WA

7:59 AM PDT on September 05, 2015 (GMT -0700)
Republic | | Change Station
CLOSE
Current Station
Personal Weather Station
Location: Republic, WA
Elevation: 2959 ft
Nearby Weather Stations

Elev 2959 ft 48.66 °N, 118.73 °W | Updated 3 minutes ago

Mostly Cloudy
Mostly Cloudy
46.6 °F
Feels Like 47 °F
N
0.0
Wind Variable Wind from WSW
Gusts 0.0 mph

Today
High -- | Low -- °F
--% Chance of Precip.
Yesterday
High -- | Low -- °F
Precip. -- in
6:17 AM 7:28 PM
Waning Gibbous, 48% visible
Pressure 29.88 in
Visibility 4.0 miles
Clouds Scattered Clouds 300 ft
Mostly Cloudy 800 ft
Overcast 2900 ft
Windchill 47 °F
Dew Point 37 °F
Humidity 68%
Rainfall 0.00 in
Snow Depth Not available.
UV 0 out of 12
Pollen 2.10 out of 12
Air Quality Not available.
Flu Activity Not available.
METAR KDEW 051453Z AUTO 18003KT 4SM -RA BR SCT003 BKN008 OVC029 09/09 A2988 RMK AO2 RAE14B33 CIG 006V010 SLP117 P0003 60014 T00940089 53009
Pressure 29.88 in
Visibility 4.0 miles
Clouds Scattered Clouds 300 ft
Mostly Cloudy 800 ft
Overcast 2900 ft
Windchill 47 °F
Dew Point 37 °F
Humidity 68%
Rainfall 0.00 in
Snow Depth Not available.
UV 0 out of 12
Pollen 2.10 out of 12
Air Quality Not available.
Flu Activity Not available.
METAR KDEW 051453Z AUTO 18003KT 4SM -RA BR SCT003 BKN008 OVC029 09/09 A2988 RMK AO2 RAE14B33 CIG 006V010 SLP117 P0003 60014 T00940089 53009

10-Day Weather Forecast

×

Almanac

Astronomy

Sep. 05, 2015 Rise Set
Actual Time
Civil Twilight
Nautical Twilight
Astronomical Twilight
Moon
Length of Visible Light
Length of Day
Tomorrow will be .
, % of the Moon is Illuminated

Today's Extremes

State Highs State Lows

Community

WunderPhotos

Upload Photos

1,852,481 photos uploaded!

WunderBlogs® & News

Nearby

Air Quality

  Air Quality AQ Index Pollutant
Not available.

Snow Depth

Station Depth Elevation

Earthquake Activity

City Distance Mag. Time & Date
Minimum magnitude displayed is 2.5.

Coastal Water Temperatures

Place Temperature

Stations

Nearby Weather Stations

Station Location Temp. Windchill Dew Point Humidity Wind Precip. Elev Updated Type